sensor_id;sensor_type;location;lat;lon;timestamp;P1;durP1;ratioP1;P2;durP2;ratioP2
36233;SDS011;43467;50.890;5.982;2022-07-30T00:01:27;5.55;;;3.95;;
36233;SDS011;43467;50.890;5.982;2022-07-30T00:03:52;8.20;;;4.45;;
36233;SDS011;43467;50.890;5.982;2022-07-30T00:06:18;9.50;;;4.28;;
36233;SDS011;43467;50.890;5.982;2022-07-30T00:08:43;12.85;;;4.75;;
36233;SDS011;43467;50.890;5.982;2022-07-30T00:11:09;10.73;;;4.30;;
36233;SDS011;43467;50.890;5.982;2022-07-30T00:13:35;11.40;;;4.47;;
36233;SDS011;43467;50.890;5.982;2022-07-30T00:16:01;8.00;;;4.88;;
36233;SDS011;43467;50.890;5.982;2022-07-30T00:18:27;9.63;;;4.60;;
36233;SDS011;43467;50.890;5.982;2022-07-30T00:20:52;9.90;;;4.15;;
36233;SDS011;43467;50.890;5.982;2022-07-30T00:23:17;9.55;;;5.07;;
36233;SDS011;43467;50.890;5.982;2022-07-30T00:25:43;6.88;;;4.90;;
36233;SDS011;43467;50.890;5.982;2022-07-30T00:28:08;7.35;;;4.43;;
36233;SDS011;43467;50.890;5.982;2022-07-30T00:30:34;7.38;;;3.95;;
36233;SDS011;43467;50.890;5.982;2022-07-30T00:32:59;7.75;;;5.43;;
36233;SDS011;43467;50.890;5.982;2022-07-30T00:35:24;6.38;;;4.10;;
36233;SDS011;43467;50.890;5.982;2022-07-30T00:37:50;7.00;;;4.63;;
36233;SDS011;43467;50.890;5.982;2022-07-30T00:40:15;6.82;;;4.80;;
36233;SDS011;43467;50.890;5.982;2022-07-30T00:42:41;5.43;;;3.92;;
36233;SDS011;43467;50.890;5.982;2022-07-30T00:45:09;7.78;;;4.75;;
36233;SDS011;43467;50.890;5.982;2022-07-30T00:47:36;6.45;;;4.38;;
36233;SDS011;43467;50.890;5.982;2022-07-30T00:50:02;11.05;;;4.53;;
36233;SDS011;43467;50.890;5.982;2022-07-30T00:52:33;8.73;;;4.80;;
36233;SDS011;43467;50.890;5.982;2022-07-30T00:54:59;11.68;;;4.90;;
36233;SDS011;43467;50.890;5.982;2022-07-30T00:57:27;8.88;;;4.40;;
36233;SDS011;43467;50.890;5.982;2022-07-30T00:59:53;9.55;;;4.85;;
36233;SDS011;43467;50.890;5.982;2022-07-30T01:02:19;6.10;;;4.38;;
36233;SDS011;43467;50.890;5.982;2022-07-30T01:04:44;10.93;;;5.28;;
36233;SDS011;43467;50.890;5.982;2022-07-30T01:07:10;6.88;;;4.55;;
36233;SDS011;43467;50.890;5.982;2022-07-30T01:09:36;10.82;;;4.78;;
36233;SDS011;43467;50.890;5.982;2022-07-30T01:12:02;12.57;;;5.30;;
36233;SDS011;43467;50.890;5.982;2022-07-30T01:14:30;14.40;;;5.05;;
36233;SDS011;43467;50.890;5.982;2022-07-30T01:16:58;7.55;;;4.60;;
36233;SDS011;43467;50.890;5.982;2022-07-30T01:19:24;8.98;;;4.93;;
36233;SDS011;43467;50.890;5.982;2022-07-30T01:23:06;9.30;;;4.60;;
36233;SDS011;43467;50.890;5.982;2022-07-30T01:28:08;9.45;;;4.88;;
36233;SDS011;43467;50.890;5.982;2022-07-30T01:30:37;10.13;;;4.60;;
36233;SDS011;43467;50.890;5.982;2022-07-30T01:33:06;9.00;;;4.38;;
36233;SDS011;43467;50.890;5.982;2022-07-30T01:35:35;12.85;;;4.72;;
36233;SDS011;43467;50.890;5.982;2022-07-30T01:38:03;8.70;;;4.82;;
36233;SDS011;43467;50.890;5.982;2022-07-30T01:40:30;8.52;;;4.65;;
36233;SDS011;43467;50.890;5.982;2022-07-30T01:42:56;8.10;;;4.68;;
36233;SDS011;43467;50.890;5.982;2022-07-30T01:45:24;7.13;;;5.00;;
36233;SDS011;43467;50.890;5.982;2022-07-30T01:47:52;8.18;;;4.80;;
36233;SDS011;43467;50.890;5.982;2022-07-30T01:50:20;8.63;;;4.88;;
36233;SDS011;43467;50.890;5.982;2022-07-30T01:52:47;9.95;;;5.13;;
36233;SDS011;43467;50.890;5.982;2022-07-30T01:55:16;14.82;;;5.53;;
36233;SDS011;43467;50.890;5.982;2022-07-30T01:57:46;7.00;;;5.00;;
36233;SDS011;43467;50.890;5.982;2022-07-30T02:00:13;11.10;;;5.25;;
36233;SDS011;43467;50.890;5.982;2022-07-30T02:02:38;6.55;;;4.78;;
36233;SDS011;43467;50.890;5.982;2022-07-30T02:05:05;9.65;;;4.85;;
36233;SDS011;43467;50.890;5.982;2022-07-30T02:10:06;11.77;;;5.38;;
36233;SDS011;43467;50.890;5.982;2022-07-30T02:12:38;9.18;;;4.97;;
36233;SDS011;43467;50.890;5.982;2022-07-30T02:18:00;9.98;;;5.20;;
36233;SDS011;43467;50.890;5.982;2022-07-30T02:20:29;10.70;;;5.45;;
36233;SDS011;43467;50.890;5.982;2022-07-30T02:23:15;9.85;;;5.82;;
36233;SDS011;43467;50.890;5.982;2022-07-30T02:28:08;12.90;;;5.75;;
36233;SDS011;43467;50.890;5.982;2022-07-30T02:30:36;8.73;;;5.95;;
36233;SDS011;43467;50.890;5.982;2022-07-30T02:33:08;12.88;;;6.63;;
36233;SDS011;43467;50.890;5.982;2022-07-30T02:35:37;7.68;;;5.20;;
36233;SDS011;43467;50.890;5.982;2022-07-30T02:38:03;10.60;;;6.53;;
36233;SDS011;43467;50.890;5.982;2022-07-30T02:40:30;14.63;;;6.57;;
36233;SDS011;43467;50.890;5.982;2022-07-30T02:42:56;9.85;;;6.43;;
36233;SDS011;43467;50.890;5.982;2022-07-30T02:45:24;20.45;;;6.72;;
36233;SDS011;43467;50.890;5.982;2022-07-30T02:47:54;13.57;;;7.13;;
36233;SDS011;43467;50.890;5.982;2022-07-30T02:50:22;11.52;;;7.32;;
36233;SDS011;43467;50.890;5.982;2022-07-30T02:52:49;11.10;;;7.05;;
36233;SDS011;43467;50.890;5.982;2022-07-30T02:55:16;16.77;;;7.88;;
36233;SDS011;43467;50.890;5.982;2022-07-30T02:57:42;19.85;;;7.32;;
36233;SDS011;43467;50.890;5.982;2022-07-30T03:00:08;13.73;;;7.13;;
36233;SDS011;43467;50.890;5.982;2022-07-30T03:02:35;12.80;;;7.72;;
36233;SDS011;43467;50.890;5.982;2022-07-30T03:05:03;11.05;;;6.75;;
36233;SDS011;43467;50.890;5.982;2022-07-30T03:07:30;12.57;;;7.90;;
36233;SDS011;43467;50.890;5.982;2022-07-30T03:09:56;12.30;;;8.48;;
36233;SDS011;43467;50.890;5.982;2022-07-30T03:12:23;15.02;;;7.25;;
36233;SDS011;43467;50.890;5.982;2022-07-30T03:14:52;21.65;;;8.15;;
36233;SDS011;43467;50.890;5.982;2022-07-30T03:17:18;12.30;;;7.57;;
36233;SDS011;43467;50.890;5.982;2022-07-30T03:19:46;11.43;;;8.65;;
36233;SDS011;43467;50.890;5.982;2022-07-30T03:22:13;13.50;;;8.20;;
36233;SDS011;43467;50.890;5.982;2022-07-30T03:24:41;12.30;;;8.15;;
36233;SDS011;43467;50.890;5.982;2022-07-30T03:27:08;16.48;;;8.02;;
36233;SDS011;43467;50.890;5.982;2022-07-30T03:29:34;11.77;;;8.23;;
36233;SDS011;43467;50.890;5.982;2022-07-30T03:32:02;13.30;;;9.35;;
36233;SDS011;43467;50.890;5.982;2022-07-30T03:34:29;17.50;;;9.38;;
36233;SDS011;43467;50.890;5.982;2022-07-30T03:36:57;14.93;;;8.98;;
36233;SDS011;43467;50.890;5.982;2022-07-30T03:39:22;13.23;;;8.98;;
36233;SDS011;43467;50.890;5.982;2022-07-30T03:41:48;22.35;;;8.80;;
36233;SDS011;43467;50.890;5.982;2022-07-30T03:44:15;12.05;;;8.10;;
36233;SDS011;43467;50.890;5.982;2022-07-30T03:46:40;14.23;;;9.13;;
36233;SDS011;43467;50.890;5.982;2022-07-30T03:49:07;15.73;;;9.40;;
36233;SDS011;43467;50.890;5.982;2022-07-30T03:51:34;16.20;;;9.85;;
36233;SDS011;43467;50.890;5.982;2022-07-30T03:54:01;15.38;;;9.43;;
36233;SDS011;43467;50.890;5.982;2022-07-30T03:56:28;20.98;;;10.50;;
36233;SDS011;43467;50.890;5.982;2022-07-30T03:58:54;15.63;;;9.88;;
36233;SDS011;43467;50.890;5.982;2022-07-30T04:01:23;20.58;;;10.95;;
36233;SDS011;43467;50.890;5.982;2022-07-30T04:03:51;18.00;;;10.35;;
36233;SDS011;43467;50.890;5.982;2022-07-30T04:06:17;18.90;;;11.13;;
36233;SDS011;43467;50.890;5.982;2022-07-30T04:08:42;21.88;;;11.80;;
36233;SDS011;43467;50.890;5.982;2022-07-30T04:11:07;19.60;;;11.30;;
36233;SDS011;43467;50.890;5.982;2022-07-30T04:13:33;18.63;;;12.25;;
36233;SDS011;43467;50.890;5.982;2022-07-30T04:16:06;13.93;;;10.15;;
36233;SDS011;43467;50.890;5.982;2022-07-30T04:18:39;18.85;;;10.77;;
36233;SDS011;43467;50.890;5.982;2022-07-30T04:21:09;19.17;;;11.25;;
36233;SDS011;43467;50.890;5.982;2022-07-30T04:23:39;18.40;;;10.88;;
36233;SDS011;43467;50.890;5.982;2022-07-30T04:26:05;19.55;;;11.45;;
36233;SDS011;43467;50.890;5.982;2022-07-30T04:28:31;21.58;;;12.55;;
36233;SDS011;43467;50.890;5.982;2022-07-30T04:30:56;20.23;;;12.45;;
36233;SDS011;43467;50.890;5.982;2022-07-30T04:33:22;27.42;;;11.75;;
36233;SDS011;43467;50.890;5.982;2022-07-30T04:35:47;24.70;;;11.68;;
36233;SDS011;43467;50.890;5.982;2022-07-30T04:38:13;18.95;;;13.18;;
36233;SDS011;43467;50.890;5.982;2022-07-30T04:40:39;23.20;;;14.13;;
36233;SDS011;43467;50.890;5.982;2022-07-30T04:43:05;23.02;;;13.13;;
36233;SDS011;43467;50.890;5.982;2022-07-30T04:45:31;25.17;;;14.80;;
36233;SDS011;43467;50.890;5.982;2022-07-30T04:47:56;26.17;;;15.43;;
36233;SDS011;43467;50.890;5.982;2022-07-30T04:50:23;32.03;;;14.98;;
36233;SDS011;43467;50.890;5.982;2022-07-30T04:52:51;23.95;;;14.50;;
36233;SDS011;43467;50.890;5.982;2022-07-30T04:55:18;25.13;;;15.82;;
36233;SDS011;43467;50.890;5.982;2022-07-30T04:57:45;38.45;;;17.58;;
36233;SDS011;43467;50.890;5.982;2022-07-30T05:00:14;33.17;;;18.27;;
36233;SDS011;43467;50.890;5.982;2022-07-30T05:02:40;46.90;;;20.23;;
36233;SDS011;43467;50.890;5.982;2022-07-30T05:05:07;37.85;;;18.88;;
36233;SDS011;43467;50.890;5.982;2022-07-30T05:07:35;42.42;;;21.33;;
36233;SDS011;43467;50.890;5.982;2022-07-30T05:10:02;34.45;;;19.95;;
36233;SDS011;43467;50.890;5.982;2022-07-30T05:12:31;55.47;;;24.45;;
36233;SDS011;43467;50.890;5.982;2022-07-30T05:14:57;46.97;;;23.88;;
36233;SDS011;43467;50.890;5.982;2022-07-30T05:17:23;50.28;;;25.33;;
36233;SDS011;43467;50.890;5.982;2022-07-30T05:19:48;52.63;;;25.35;;
36233;SDS011;43467;50.890;5.982;2022-07-30T05:22:13;55.53;;;25.73;;
36233;SDS011;43467;50.890;5.982;2022-07-30T05:24:39;58.20;;;26.33;;
36233;SDS011;43467;50.890;5.982;2022-07-30T05:27:04;53.30;;;27.80;;
36233;SDS011;43467;50.890;5.982;2022-07-30T05:29:29;58.55;;;27.67;;
36233;SDS011;43467;50.890;5.982;2022-07-30T05:31:55;58.20;;;29.48;;
36233;SDS011;43467;50.890;5.982;2022-07-30T05:34:20;56.47;;;27.25;;
36233;SDS011;43467;50.890;5.982;2022-07-30T05:36:46;69.90;;;31.35;;
36233;SDS011;43467;50.890;5.982;2022-07-30T05:39:11;64.45;;;30.17;;
36233;SDS011;43467;50.890;5.982;2022-07-30T05:41:36;55.92;;;28.90;;
36233;SDS011;43467;50.890;5.982;2022-07-30T05:44:02;57.33;;;28.38;;
36233;SDS011;43467;50.890;5.982;2022-07-30T05:46:27;59.80;;;29.48;;
36233;SDS011;43467;50.890;5.982;2022-07-30T05:48:53;64.45;;;28.50;;
36233;SDS011;43467;50.890;5.982;2022-07-30T05:51:18;53.90;;;28.30;;
36233;SDS011;43467;50.890;5.982;2022-07-30T05:53:44;59.80;;;29.73;;
36233;SDS011;43467;50.890;5.982;2022-07-30T05:56:10;66.15;;;31.63;;
36233;SDS011;43467;50.890;5.982;2022-07-30T05:58:36;56.38;;;28.92;;
36233;SDS011;43467;50.890;5.982;2022-07-30T06:01:01;54.08;;;28.00;;
36233;SDS011;43467;50.890;5.982;2022-07-30T06:03:26;55.53;;;29.40;;
36233;SDS011;43467;50.890;5.982;2022-07-30T06:05:52;57.00;;;27.65;;
36233;SDS011;43467;50.890;5.982;2022-07-30T06:08:17;56.40;;;29.48;;
36233;SDS011;43467;50.890;5.982;2022-07-30T06:10:42;67.03;;;29.80;;
36233;SDS011;43467;50.890;5.982;2022-07-30T06:13:08;67.70;;;31.45;;
36233;SDS011;43467;50.890;5.982;2022-07-30T06:15:33;64.13;;;31.08;;
36233;SDS011;43467;50.890;5.982;2022-07-30T06:17:58;64.57;;;33.65;;
36233;SDS011;43467;50.890;5.982;2022-07-30T06:20:24;72.18;;;34.70;;
36233;SDS011;43467;50.890;5.982;2022-07-30T06:22:49;64.18;;;33.30;;
36233;SDS011;43467;50.890;5.982;2022-07-30T06:25:14;69.55;;;32.65;;
36233;SDS011;43467;50.890;5.982;2022-07-30T06:27:40;69.35;;;34.08;;
36233;SDS011;43467;50.890;5.982;2022-07-30T06:30:06;77.15;;;35.35;;
36233;SDS011;43467;50.890;5.982;2022-07-30T06:32:33;75.68;;;36.28;;
36233;SDS011;43467;50.890;5.982;2022-07-30T06:34:59;71.22;;;36.10;;
36233;SDS011;43467;50.890;5.982;2022-07-30T06:37:25;66.88;;;34.90;;
36233;SDS011;43467;50.890;5.982;2022-07-30T06:39:51;68.00;;;32.80;;
36233;SDS011;43467;50.890;5.982;2022-07-30T06:42:16;74.80;;;35.03;;
36233;SDS011;43467;50.890;5.982;2022-07-30T06:44:42;74.05;;;35.97;;
36233;SDS011;43467;50.890;5.982;2022-07-30T06:47:07;64.47;;;33.47;;
36233;SDS011;43467;50.890;5.982;2022-07-30T06:49:33;63.53;;;33.90;;
36233;SDS011;43467;50.890;5.982;2022-07-30T06:52:00;66.15;;;32.70;;
36233;SDS011;43467;50.890;5.982;2022-07-30T06:54:26;61.05;;;29.83;;
36233;SDS011;43467;50.890;5.982;2022-07-30T06:56:51;65.55;;;32.85;;
36233;SDS011;43467;50.890;5.982;2022-07-30T06:59:17;65.60;;;33.10;;
36233;SDS011;43467;50.890;5.982;2022-07-30T07:01:42;80.55;;;37.65;;
36233;SDS011;43467;50.890;5.982;2022-07-30T07:04:08;70.47;;;36.10;;
36233;SDS011;43467;50.890;5.982;2022-07-30T07:06:34;74.90;;;37.65;;
36233;SDS011;43467;50.890;5.982;2022-07-30T07:08:59;73.20;;;35.47;;
36233;SDS011;43467;50.890;5.982;2022-07-30T07:11:25;71.78;;;35.33;;
36233;SDS011;43467;50.890;5.982;2022-07-30T07:13:50;72.00;;;35.45;;
36233;SDS011;43467;50.890;5.982;2022-07-30T07:16:16;68.65;;;35.13;;
36233;SDS011;43467;50.890;5.982;2022-07-30T07:18:45;60.83;;;32.50;;
36233;SDS011;43467;50.890;5.982;2022-07-30T07:21:12;71.35;;;36.55;;
36233;SDS011;43467;50.890;5.982;2022-07-30T07:23:38;63.38;;;34.20;;
36233;SDS011;43467;50.890;5.982;2022-07-30T07:26:04;70.30;;;35.25;;
36233;SDS011;43467;50.890;5.982;2022-07-30T07:28:29;55.25;;;30.75;;
36233;SDS011;43467;50.890;5.982;2022-07-30T07:30:54;55.45;;;30.75;;
36233;SDS011;43467;50.890;5.982;2022-07-30T07:33:20;59.05;;;32.95;;
36233;SDS011;43467;50.890;5.982;2022-07-30T07:35:45;53.75;;;30.88;;
36233;SDS011;43467;50.890;5.982;2022-07-30T07:38:11;56.85;;;30.38;;
36233;SDS011;43467;50.890;5.982;2022-07-30T07:40:36;51.22;;;28.63;;
36233;SDS011;43467;50.890;5.982;2022-07-30T07:43:01;43.45;;;27.02;;
36233;SDS011;43467;50.890;5.982;2022-07-30T07:45:27;49.05;;;28.27;;
36233;SDS011;43467;50.890;5.982;2022-07-30T07:47:53;44.22;;;25.17;;
36233;SDS011;43467;50.890;5.982;2022-07-30T07:50:19;47.80;;;26.50;;
36233;SDS011;43467;50.890;5.982;2022-07-30T07:52:44;45.40;;;26.40;;
36233;SDS011;43467;50.890;5.982;2022-07-30T07:55:10;49.17;;;26.02;;
36233;SDS011;43467;50.890;5.982;2022-07-30T07:57:42;40.35;;;23.85;;
36233;SDS011;43467;50.890;5.982;2022-07-30T08:00:09;39.97;;;24.88;;
36233;SDS011;43467;50.890;5.982;2022-07-30T08:02:36;41.70;;;24.90;;
36233;SDS011;43467;50.890;5.982;2022-07-30T08:05:02;40.45;;;23.38;;
36233;SDS011;43467;50.890;5.982;2022-07-30T08:07:29;35.17;;;21.83;;
36233;SDS011;43467;50.890;5.982;2022-07-30T08:09:55;38.13;;;23.05;;
36233;SDS011;43467;50.890;5.982;2022-07-30T08:12:21;34.85;;;20.15;;
36233;SDS011;43467;50.890;5.982;2022-07-30T08:14:46;35.20;;;21.00;;
36233;SDS011;43467;50.890;5.982;2022-07-30T08:17:11;36.50;;;19.98;;
36233;SDS011;43467;50.890;5.982;2022-07-30T08:19:37;35.55;;;20.38;;
36233;SDS011;43467;50.890;5.982;2022-07-30T08:22:02;30.25;;;19.17;;
36233;SDS011;43467;50.890;5.982;2022-07-30T08:24:27;32.88;;;17.75;;
36233;SDS011;43467;50.890;5.982;2022-07-30T08:26:53;29.95;;;17.42;;
36233;SDS011;43467;50.890;5.982;2022-07-30T08:29:18;24.17;;;14.18;;
36233;SDS011;43467;50.890;5.982;2022-07-30T08:31:44;21.42;;;13.43;;
36233;SDS011;43467;50.890;5.982;2022-07-30T08:34:09;30.30;;;17.63;;
36233;SDS011;43467;50.890;5.982;2022-07-30T08:36:34;26.25;;;15.57;;
36233;SDS011;43467;50.890;5.982;2022-07-30T08:39:00;31.15;;;17.73;;
36233;SDS011;43467;50.890;5.982;2022-07-30T08:41:25;31.95;;;16.73;;
36233;SDS011;43467;50.890;5.982;2022-07-30T08:43:52;22.55;;;14.75;;
36233;SDS011;43467;50.890;5.982;2022-07-30T08:46:18;29.52;;;15.57;;
36233;SDS011;43467;50.890;5.982;2022-07-30T08:48:48;24.23;;;14.45;;
36233;SDS011;43467;50.890;5.982;2022-07-30T08:51:15;29.77;;;15.50;;
36233;SDS011;43467;50.890;5.982;2022-07-30T08:53:42;25.30;;;14.65;;
36233;SDS011;43467;50.890;5.982;2022-07-30T08:56:07;24.73;;;13.40;;
36233;SDS011;43467;50.890;5.982;2022-07-30T08:58:33;24.15;;;14.20;;
36233;SDS011;43467;50.890;5.982;2022-07-30T09:01:02;24.30;;;14.73;;
36233;SDS011;43467;50.890;5.982;2022-07-30T09:03:28;22.02;;;14.40;;
36233;SDS011;43467;50.890;5.982;2022-07-30T09:05:54;28.10;;;14.85;;
36233;SDS011;43467;50.890;5.982;2022-07-30T09:08:19;24.35;;;13.73;;
36233;SDS011;43467;50.890;5.982;2022-07-30T09:10:45;28.38;;;14.30;;
36233;SDS011;43467;50.890;5.982;2022-07-30T09:16:07;23.60;;;14.20;;
36233;SDS011;43467;50.890;5.982;2022-07-30T09:18:46;22.58;;;12.80;;
36233;SDS011;43467;50.890;5.982;2022-07-30T09:21:13;23.63;;;11.55;;
36233;SDS011;43467;50.890;5.982;2022-07-30T09:26:31;19.65;;;11.07;;
36233;SDS011;43467;50.890;5.982;2022-07-30T09:29:16;14.10;;;9.45;;
36233;SDS011;43467;50.890;5.982;2022-07-30T09:31:56;16.98;;;10.18;;
36233;SDS011;43467;50.890;5.982;2022-07-30T09:34:28;15.63;;;9.77;;
36233;SDS011;43467;50.890;5.982;2022-07-30T09:37:01;19.67;;;11.88;;
36233;SDS011;43467;50.890;5.982;2022-07-30T09:39:44;19.38;;;9.90;;
36233;SDS011;43467;50.890;5.982;2022-07-30T09:42:23;17.98;;;9.68;;
36233;SDS011;43467;50.890;5.982;2022-07-30T09:44:51;23.85;;;11.63;;
36233;SDS011;43467;50.890;5.982;2022-07-30T09:47:32;13.85;;;9.30;;
36233;SDS011;43467;50.890;5.982;2022-07-30T09:50:06;18.92;;;11.88;;
36233;SDS011;43467;50.890;5.982;2022-07-30T09:52:32;22.20;;;11.80;;
36233;SDS011;43467;50.890;5.982;2022-07-30T09:54:58;18.40;;;12.25;;
36233;SDS011;43467;50.890;5.982;2022-07-30T09:57:23;19.48;;;11.50;;
36233;SDS011;43467;50.890;5.982;2022-07-30T09:59:49;18.02;;;11.35;;
36233;SDS011;43467;50.890;5.982;2022-07-30T10:02:14;14.45;;;9.88;;
36233;SDS011;43467;50.890;5.982;2022-07-30T10:04:40;14.82;;;8.73;;
36233;SDS011;43467;50.890;5.982;2022-07-30T10:07:06;13.43;;;8.88;;
36233;SDS011;43467;50.890;5.982;2022-07-30T10:09:41;13.70;;;7.93;;
36233;SDS011;43467;50.890;5.982;2022-07-30T10:12:09;16.00;;;9.00;;
36233;SDS011;43467;50.890;5.982;2022-07-30T10:14:37;21.48;;;10.10;;
36233;SDS011;43467;50.890;5.982;2022-07-30T10:17:08;17.20;;;9.27;;
36233;SDS011;43467;50.890;5.982;2022-07-30T10:19:33;12.43;;;8.27;;
36233;SDS011;43467;50.890;5.982;2022-07-30T10:22:01;12.60;;;8.60;;
36233;SDS011;43467;50.890;5.982;2022-07-30T10:24:26;13.40;;;8.23;;
36233;SDS011;43467;50.890;5.982;2022-07-30T10:26:55;12.07;;;8.70;;
36233;SDS011;43467;50.890;5.982;2022-07-30T10:29:20;18.05;;;9.68;;
36233;SDS011;43467;50.890;5.982;2022-07-30T10:31:46;20.00;;;9.55;;
36233;SDS011;43467;50.890;5.982;2022-07-30T10:34:13;22.77;;;10.13;;
36233;SDS011;43467;50.890;5.982;2022-07-30T10:36:42;13.35;;;8.95;;
36233;SDS011;43467;50.890;5.982;2022-07-30T10:39:11;14.13;;;8.90;;
36233;SDS011;43467;50.890;5.982;2022-07-30T10:47:06;13.07;;;7.82;;
36233;SDS011;43467;50.890;5.982;2022-07-30T10:49:33;10.48;;;7.90;;
36233;SDS011;43467;50.890;5.982;2022-07-30T10:51:59;15.32;;;9.68;;
36233;SDS011;43467;50.890;5.982;2022-07-30T10:54:42;10.27;;;6.68;;
36233;SDS011;43467;50.890;5.982;2022-07-30T10:57:15;11.60;;;8.00;;
36233;SDS011;43467;50.890;5.982;2022-07-30T11:02:19;13.05;;;8.32;;
36233;SDS011;43467;50.890;5.982;2022-07-30T11:04:46;11.80;;;8.10;;
36233;SDS011;43467;50.890;5.982;2022-07-30T11:12:50;8.23;;;5.70;;
36233;SDS011;43467;50.890;5.982;2022-07-30T11:15:08;6.65;;;4.97;;
36233;SDS011;43467;50.890;5.982;2022-07-30T11:18:20;9.85;;;5.97;;
36233;SDS011;43467;50.890;5.982;2022-07-30T11:20:23;11.85;;;5.22;;
36233;SDS011;43467;50.890;5.982;2022-07-30T11:22:48;10.93;;;5.38;;
36233;SDS011;43467;50.890;5.982;2022-07-30T11:27:45;10.40;;;5.45;;
36233;SDS011;43467;50.890;5.982;2022-07-30T11:32:50;7.90;;;5.55;;
36233;SDS011;43467;50.890;5.982;2022-07-30T11:35:22;7.03;;;5.40;;
36233;SDS011;43467;50.890;5.982;2022-07-30T11:37:55;13.10;;;5.60;;
36233;SDS011;43467;50.890;5.982;2022-07-30T11:40:24;11.05;;;6.10;;
36233;SDS011;43467;50.890;5.982;2022-07-30T11:42:52;9.05;;;5.03;;
36233;SDS011;43467;50.890;5.982;2022-07-30T11:48:37;5.72;;;3.47;;
36233;SDS011;43467;50.890;5.982;2022-07-30T11:51:04;7.68;;;4.22;;
36233;SDS011;43467;50.890;5.982;2022-07-30T11:53:30;6.32;;;3.97;;
36233;SDS011;43467;50.890;5.982;2022-07-30T11:55:57;9.93;;;3.70;;
36233;SDS011;43467;50.890;5.982;2022-07-30T11:58:28;6.90;;;3.88;;
36233;SDS011;43467;50.890;5.982;2022-07-30T12:01:07;5.53;;;3.38;;
36233;SDS011;43467;50.890;5.982;2022-07-30T12:03:40;7.63;;;2.92;;
36233;SDS011;43467;50.890;5.982;2022-07-30T12:06:09;8.65;;;2.95;;
36233;SDS011;43467;50.890;5.982;2022-07-30T12:08:42;6.60;;;2.67;;
36233;SDS011;43467;50.890;5.982;2022-07-30T12:11:10;8.52;;;2.95;;
36233;SDS011;43467;50.890;5.982;2022-07-30T12:13:37;3.08;;;2.05;;
36233;SDS011;43467;50.890;5.982;2022-07-30T12:16:08;3.78;;;2.58;;
36233;SDS011;43467;50.890;5.982;2022-07-30T12:18:36;4.32;;;2.42;;
36233;SDS011;43467;50.890;5.982;2022-07-30T12:21:05;5.60;;;2.25;;
36233;SDS011;43467;50.890;5.982;2022-07-30T12:23:34;5.80;;;3.13;;
36233;SDS011;43467;50.890;5.982;2022-07-30T12:26:00;4.47;;;2.78;;
36233;SDS011;43467;50.890;5.982;2022-07-30T12:28:26;3.17;;;2.00;;
36233;SDS011;43467;50.890;5.982;2022-07-30T12:30:54;3.30;;;1.77;;
36233;SDS011;43467;50.890;5.982;2022-07-30T12:33:21;7.57;;;2.88;;
36233;SDS011;43467;50.890;5.982;2022-07-30T12:35:51;5.90;;;2.35;;
36233;SDS011;43467;50.890;5.982;2022-07-30T12:38:18;3.97;;;2.20;;
36233;SDS011;43467;50.890;5.982;2022-07-30T12:40:53;3.70;;;2.30;;
36233;SDS011;43467;50.890;5.982;2022-07-30T12:43:41;3.47;;;2.00;;
36233;SDS011;43467;50.890;5.982;2022-07-30T12:46:07;3.22;;;2.10;;
36233;SDS011;43467;50.890;5.982;2022-07-30T12:48:33;7.63;;;2.40;;
36233;SDS011;43467;50.890;5.982;2022-07-30T12:51:08;5.40;;;2.35;;
36233;SDS011;43467;50.890;5.982;2022-07-30T12:53:34;5.47;;;2.33;;
36233;SDS011;43467;50.890;5.982;2022-07-30T12:56:19;6.20;;;1.98;;
36233;SDS011;43467;50.890;5.982;2022-07-30T12:58:46;5.35;;;1.70;;
36233;SDS011;43467;50.890;5.982;2022-07-30T13:01:12;6.57;;;2.05;;
36233;SDS011;43467;50.890;5.982;2022-07-30T13:03:38;4.70;;;1.75;;
36233;SDS011;43467;50.890;5.982;2022-07-30T13:08:52;4.95;;;2.03;;
36233;SDS011;43467;50.890;5.982;2022-07-30T13:11:26;5.22;;;2.05;;
36233;SDS011;43467;50.890;5.982;2022-07-30T13:14:03;5.40;;;2.55;;
36233;SDS011;43467;50.890;5.982;2022-07-30T13:16:32;4.07;;;2.83;;
36233;SDS011;43467;50.890;5.982;2022-07-30T13:18:59;5.43;;;2.58;;
36233;SDS011;43467;50.890;5.982;2022-07-30T13:21:26;3.80;;;1.98;;
36233;SDS011;43467;50.890;5.982;2022-07-30T13:23:51;5.88;;;2.13;;
36233;SDS011;43467;50.890;5.982;2022-07-30T13:26:17;5.00;;;2.92;;
36233;SDS011;43467;50.890;5.982;2022-07-30T13:28:42;6.88;;;2.60;;
36233;SDS011;43467;50.890;5.982;2022-07-30T13:31:10;3.88;;;2.60;;
36233;SDS011;43467;50.890;5.982;2022-07-30T13:33:36;6.85;;;2.97;;
36233;SDS011;43467;50.890;5.982;2022-07-30T13:36:01;4.30;;;2.10;;
36233;SDS011;43467;50.890;5.982;2022-07-30T13:38:27;5.53;;;2.83;;
36233;SDS011;43467;50.890;5.982;2022-07-30T13:40:53;7.03;;;2.97;;
36233;SDS011;43467;50.890;5.982;2022-07-30T13:43:19;6.82;;;3.15;;
36233;SDS011;43467;50.890;5.982;2022-07-30T13:45:45;4.85;;;2.90;;
36233;SDS011;43467;50.890;5.982;2022-07-30T13:48:11;7.47;;;3.20;;
36233;SDS011;43467;50.890;5.982;2022-07-30T13:50:37;4.18;;;2.67;;
36233;SDS011;43467;50.890;5.982;2022-07-30T13:53:02;7.10;;;3.40;;
36233;SDS011;43467;50.890;5.982;2022-07-30T13:55:28;6.28;;;3.22;;
36233;SDS011;43467;50.890;5.982;2022-07-30T13:57:54;3.80;;;2.70;;
36233;SDS011;43467;50.890;5.982;2022-07-30T14:00:19;8.73;;;3.25;;
36233;SDS011;43467;50.890;5.982;2022-07-30T14:02:46;5.07;;;2.60;;
36233;SDS011;43467;50.890;5.982;2022-07-30T14:05:12;7.45;;;2.80;;
36233;SDS011;43467;50.890;5.982;2022-07-30T14:07:38;8.38;;;3.08;;
36233;SDS011;43467;50.890;5.982;2022-07-30T14:10:04;7.47;;;3.75;;
36233;SDS011;43467;50.890;5.982;2022-07-30T14:12:31;4.22;;;3.10;;
36233;SDS011;43467;50.890;5.982;2022-07-30T14:15:00;6.68;;;3.00;;
36233;SDS011;43467;50.890;5.982;2022-07-30T14:17:26;12.70;;;3.70;;
36233;SDS011;43467;50.890;5.982;2022-07-30T14:19:51;4.32;;;2.72;;
36233;SDS011;43467;50.890;5.982;2022-07-30T14:22:19;4.00;;;2.53;;
36233;SDS011;43467;50.890;5.982;2022-07-30T14:24:44;5.78;;;2.40;;
36233;SDS011;43467;50.890;5.982;2022-07-30T14:27:10;6.47;;;2.75;;
36233;SDS011;43467;50.890;5.982;2022-07-30T14:29:35;5.50;;;2.63;;
36233;SDS011;43467;50.890;5.982;2022-07-30T14:32:01;8.77;;;2.83;;
36233;SDS011;43467;50.890;5.982;2022-07-30T14:34:26;8.52;;;2.70;;
36233;SDS011;43467;50.890;5.982;2022-07-30T14:36:52;3.80;;;2.40;;
36233;SDS011;43467;50.890;5.982;2022-07-30T14:39:17;7.80;;;3.00;;
36233;SDS011;43467;50.890;5.982;2022-07-30T14:41:43;8.77;;;3.20;;
36233;SDS011;43467;50.890;5.982;2022-07-30T14:44:08;5.97;;;2.65;;
36233;SDS011;43467;50.890;5.982;2022-07-30T14:46:36;3.90;;;2.28;;
36233;SDS011;43467;50.890;5.982;2022-07-30T14:49:02;5.90;;;2.80;;
36233;SDS011;43467;50.890;5.982;2022-07-30T14:51:28;4.63;;;2.67;;
36233;SDS011;43467;50.890;5.982;2022-07-30T14:53:53;4.55;;;2.30;;
36233;SDS011;43467;50.890;5.982;2022-07-30T14:56:18;5.30;;;2.10;;
36233;SDS011;43467;50.890;5.982;2022-07-30T14:58:46;5.90;;;2.70;;
36233;SDS011;43467;50.890;5.982;2022-07-30T15:01:11;5.43;;;2.50;;
36233;SDS011;43467;50.890;5.982;2022-07-30T15:03:36;5.32;;;2.17;;
36233;SDS011;43467;50.890;5.982;2022-07-30T15:06:02;4.75;;;2.08;;
36233;SDS011;43467;50.890;5.982;2022-07-30T15:08:28;6.60;;;2.63;;
36233;SDS011;43467;50.890;5.982;2022-07-30T15:10:53;7.78;;;2.50;;
36233;SDS011;43467;50.890;5.982;2022-07-30T15:13:19;6.43;;;1.95;;
36233;SDS011;43467;50.890;5.982;2022-07-30T15:15:45;8.75;;;2.63;;